sensor_id;sensor_type;location;lat;lon;timestamp;P1;durP1;ratioP1;P2;durP2;ratioP2
29414;SDS011;20303;48.302;11.914;2023-04-25T00:14:52;1.40;;;1.10;;
29414;SDS011;20303;48.302;11.914;2023-04-25T00:24:56;1.30;;;1.20;;
29414;SDS011;20303;48.302;11.914;2023-04-25T00:35:00;1.20;;;1.10;;
29414;SDS011;20303;48.302;11.914;2023-04-25T00:45:01;1.30;;;1.10;;
29414;SDS011;20303;48.302;11.914;2023-04-25T00:55:04;1.27;;;1.10;;
29414;SDS011;20303;48.302;11.914;2023-04-25T01:05:06;1.13;;;1.00;;
29414;SDS011;20303;48.302;11.914;2023-04-25T01:15:07;2.10;;;1.20;;
29414;SDS011;20303;48.302;11.914;2023-04-25T01:25:08;1.38;;;1.10;;
29414;SDS011;20303;48.302;11.914;2023-04-25T01:35:11;1.15;;;1.05;;
29414;SDS011;20303;48.302;11.914;2023-04-25T01:45:12;1.17;;;1.08;;
29414;SDS011;20303;48.302;11.914;2023-04-25T01:55:13;1.20;;;1.10;;
29414;SDS011;20303;48.302;11.914;2023-04-25T02:05:14;1.60;;;1.00;;
29414;SDS011;20303;48.302;11.914;2023-04-25T02:15:15;1.40;;;1.10;;
29414;SDS011;20303;48.302;11.914;2023-04-25T02:25:17;1.50;;;1.05;;
29414;SDS011;20303;48.302;11.914;2023-04-25T02:35:19;2.25;;;1.20;;
29414;SDS011;20303;48.302;11.914;2023-04-25T02:45:21;1.20;;;1.10;;
29414;SDS011;20303;48.302;11.914;2023-04-25T02:55:22;1.33;;;1.10;;
29414;SDS011;20303;48.302;11.914;2023-04-25T03:05:23;1.20;;;1.10;;
29414;SDS011;20303;48.302;11.914;2023-04-25T03:15:24;1.30;;;1.20;;
29414;SDS011;20303;48.302;11.914;2023-04-25T03:25:25;1.20;;;0.90;;
29414;SDS011;20303;48.302;11.914;2023-04-25T03:35:26;1.20;;;1.10;;
29414;SDS011;20303;48.302;11.914;2023-04-25T03:45:27;1.50;;;1.17;;
29414;SDS011;20303;48.302;11.914;2023-04-25T03:55:28;2.03;;;1.15;;
29414;SDS011;20303;48.302;11.914;2023-04-25T04:05:29;1.25;;;1.10;;
29414;SDS011;20303;48.302;11.914;2023-04-25T04:15:30;1.30;;;1.10;;
29414;SDS011;20303;48.302;11.914;2023-04-25T04:25:32;1.33;;;1.23;;
29414;SDS011;20303;48.302;11.914;2023-04-25T04:35:34;1.35;;;1.10;;
29414;SDS011;20303;48.302;11.914;2023-04-25T04:45:35;1.30;;;1.10;;
29414;SDS011;20303;48.302;11.914;2023-04-25T04:55:38;1.25;;;1.08;;
29414;SDS011;20303;48.302;11.914;2023-04-25T05:05:41;3.33;;;1.20;;
29414;SDS011;20303;48.302;11.914;2023-04-25T05:15:42;3.33;;;1.30;;
29414;SDS011;20303;48.302;11.914;2023-04-25T05:25:43;12.60;;;2.10;;
29414;SDS011;20303;48.302;11.914;2023-04-25T05:35:44;6.22;;;1.70;;
29414;SDS011;20303;48.302;11.914;2023-04-25T05:45:45;6.38;;;1.80;;
29414;SDS011;20303;48.302;11.914;2023-04-25T05:55:46;6.30;;;1.70;;
29414;SDS011;20303;48.302;11.914;2023-04-25T06:05:47;9.40;;;2.03;;
29414;SDS011;20303;48.302;11.914;2023-04-25T06:15:48;8.73;;;1.80;;
29414;SDS011;20303;48.302;11.914;2023-04-25T06:25:49;5.40;;;1.50;;
29414;SDS011;20303;48.302;11.914;2023-04-25T06:35:50;4.53;;;1.58;;
29414;SDS011;20303;48.302;11.914;2023-04-25T06:45:51;5.35;;;1.50;;
29414;SDS011;20303;48.302;11.914;2023-04-25T06:55:52;4.95;;;1.60;;
29414;SDS011;20303;48.302;11.914;2023-04-25T07:05:53;3.58;;;1.40;;
29414;SDS011;20303;48.302;11.914;2023-04-25T07:15:55;4.10;;;1.50;;
29414;SDS011;20303;48.302;11.914;2023-04-25T07:25:56;3.28;;;1.30;;
29414;SDS011;20303;48.302;11.914;2023-04-25T07:35:57;3.17;;;1.40;;
29414;SDS011;20303;48.302;11.914;2023-04-25T07:45:58;2.40;;;1.30;;
29414;SDS011;20303;48.302;11.914;2023-04-25T07:55:59;2.80;;;1.30;;
29414;SDS011;20303;48.302;11.914;2023-04-25T08:06:00;4.13;;;1.48;;
29414;SDS011;20303;48.302;11.914;2023-04-25T08:16:02;3.08;;;1.38;;
29414;SDS011;20303;48.302;11.914;2023-04-25T08:26:03;2.35;;;1.42;;
29414;SDS011;20303;48.302;11.914;2023-04-25T08:36:04;3.17;;;1.50;;
29414;SDS011;20303;48.302;11.914;2023-04-25T08:46:06;2.00;;;1.20;;
29414;SDS011;20303;48.302;11.914;2023-04-25T08:56:08;2.28;;;1.30;;
29414;SDS011;20303;48.302;11.914;2023-04-25T09:06:10;2.17;;;1.20;;
29414;SDS011;20303;48.302;11.914;2023-04-25T09:16:12;2.30;;;1.10;;
29414;SDS011;20303;48.302;11.914;2023-04-25T09:26:17;1.50;;;1.10;;
29414;SDS011;20303;48.302;11.914;2023-04-25T09:36:19;1.90;;;1.20;;
29414;SDS011;20303;48.302;11.914;2023-04-25T09:46:32;1.92;;;1.10;;
29414;SDS011;20303;48.302;11.914;2023-04-25T09:56:35;1.85;;;1.15;;
29414;SDS011;20303;48.302;11.914;2023-04-25T10:06:39;1.40;;;1.05;;
29414;SDS011;20303;48.302;11.914;2023-04-25T10:16:42;1.80;;;1.08;;
29414;SDS011;20303;48.302;11.914;2023-04-25T10:26:43;1.40;;;1.05;;
29414;SDS011;20303;48.302;11.914;2023-04-25T10:36:51;1.27;;;1.10;;
29414;SDS011;20303;48.302;11.914;2023-04-25T10:46:54;1.50;;;1.10;;
29414;SDS011;20303;48.302;11.914;2023-04-25T10:56:58;2.50;;;1.10;;
29414;SDS011;20303;48.302;11.914;2023-04-25T11:17:22;1.42;;;1.20;;
29414;SDS011;20303;48.302;11.914;2023-04-25T11:27:25;2.75;;;1.23;;
29414;SDS011;20303;48.302;11.914;2023-04-25T11:37:26;2.03;;;1.23;;
29414;SDS011;20303;48.302;11.914;2023-04-25T11:47:29;2.30;;;1.10;;
29414;SDS011;20303;48.302;11.914;2023-04-25T11:57:31;1.75;;;1.20;;
29414;SDS011;20303;48.302;11.914;2023-04-25T12:07:32;1.20;;;1.00;;
29414;SDS011;20303;48.302;11.914;2023-04-25T12:17:33;2.17;;;1.33;;
29414;SDS011;20303;48.302;11.914;2023-04-25T12:27:35;1.10;;;1.00;;
29414;SDS011;20303;48.302;11.914;2023-04-25T12:37:36;1.33;;;1.10;;
29414;SDS011;20303;48.302;11.914;2023-04-25T12:47:37;1.23;;;1.10;;
29414;SDS011;20303;48.302;11.914;2023-04-25T12:57:38;2.08;;;1.10;;
29414;SDS011;20303;48.302;11.914;2023-04-25T13:07:39;2.90;;;1.25;;
29414;SDS011;20303;48.302;11.914;2023-04-25T13:17:41;2.78;;;1.10;;
29414;SDS011;20303;48.302;11.914;2023-04-25T13:27:42;5.10;;;1.30;;
29414;SDS011;20303;48.302;11.914;2023-04-25T13:37:44;2.88;;;1.15;;
29414;SDS011;20303;48.302;11.914;2023-04-25T13:47:45;3.05;;;1.10;;
29414;SDS011;20303;48.302;11.914;2023-04-25T13:57:46;3.38;;;1.23;;
29414;SDS011;20303;48.302;11.914;2023-04-25T14:07:47;2.10;;;1.10;;
29414;SDS011;20303;48.302;11.914;2023-04-25T14:17:48;2.58;;;1.13;;
29414;SDS011;20303;48.302;11.914;2023-04-25T14:27:50;2.80;;;1.23;;
29414;SDS011;20303;48.302;11.914;2023-04-25T14:37:51;4.82;;;1.40;;
29414;SDS011;20303;48.302;11.914;2023-04-25T14:47:53;1.65;;;1.00;;
29414;SDS011;20303;48.302;11.914;2023-04-25T14:57:54;2.30;;;1.15;;
29414;SDS011;20303;48.302;11.914;2023-04-25T15:07:56;2.00;;;0.90;;
29414;SDS011;20303;48.302;11.914;2023-04-25T15:17:57;3.85;;;1.20;;
29414;SDS011;20303;48.302;11.914;2023-04-25T15:27:58;2.80;;;0.90;;
29414;SDS011;20303;48.302;11.914;2023-04-25T15:37:59;2.05;;;1.00;;
29414;SDS011;20303;48.302;11.914;2023-04-25T15:48:00;1.20;;;0.80;;
29414;SDS011;20303;48.302;11.914;2023-04-25T15:58:02;1.45;;;0.93;;
29414;SDS011;20303;48.302;11.914;2023-04-25T16:08:03;1.95;;;0.90;;
29414;SDS011;20303;48.302;11.914;2023-04-25T16:18:04;1.75;;;0.90;;
29414;SDS011;20303;48.302;11.914;2023-04-25T16:28:05;3.00;;;1.00;;
29414;SDS011;20303;48.302;11.914;2023-04-25T16:38:06;3.08;;;1.20;;
29414;SDS011;20303;48.302;11.914;2023-04-25T16:48:07;10.68;;;7.72;;
29414;SDS011;20303;48.302;11.914;2023-04-25T16:58:08;16.63;;;8.75;;
29414;SDS011;20303;48.302;11.914;2023-04-25T17:08:11;8.63;;;5.63;;
29414;SDS011;20303;48.302;11.914;2023-04-25T17:18:12;8.68;;;4.07;;
29414;SDS011;20303;48.302;11.914;2023-04-25T17:28:13;8.63;;;4.10;;
29414;SDS011;20303;48.302;11.914;2023-04-25T17:38:14;7.32;;;3.60;;
29414;SDS011;20303;48.302;11.914;2023-04-25T17:48:15;7.55;;;3.08;;
29414;SDS011;20303;48.302;11.914;2023-04-25T17:58:17;5.32;;;2.85;;
29414;SDS011;20303;48.302;11.914;2023-04-25T18:08:18;4.72;;;2.33;;
29414;SDS011;20303;48.302;11.914;2023-04-25T18:18:21;4.25;;;2.13;;
29414;SDS011;20303;48.302;11.914;2023-04-25T18:28:24;4.70;;;2.22;;
29414;SDS011;20303;48.302;11.914;2023-04-25T18:38:25;3.55;;;1.90;;
29414;SDS011;20303;48.302;11.914;2023-04-25T18:48:26;4.07;;;2.00;;
29414;SDS011;20303;48.302;11.914;2023-04-25T18:58:27;3.42;;;1.90;;
29414;SDS011;20303;48.302;11.914;2023-04-25T19:08:28;3.28;;;1.90;;
29414;SDS011;20303;48.302;11.914;2023-04-25T19:18:30;4.57;;;1.90;;
29414;SDS011;20303;48.302;11.914;2023-04-25T19:28:31;4.30;;;1.63;;
29414;SDS011;20303;48.302;11.914;2023-04-25T19:38:32;3.22;;;1.65;;
29414;SDS011;20303;48.302;11.914;2023-04-25T19:48:34;4.00;;;1.85;;
29414;SDS011;20303;48.302;11.914;2023-04-25T19:58:35;3.90;;;1.60;;
29414;SDS011;20303;48.302;11.914;2023-04-25T20:08:36;2.83;;;1.70;;
29414;SDS011;20303;48.302;11.914;2023-04-25T20:18:38;2.63;;;1.52;;
29414;SDS011;20303;48.302;11.914;2023-04-25T20:28:39;2.47;;;1.50;;
29414;SDS011;20303;48.302;11.914;2023-04-25T20:38:40;2.40;;;1.50;;
29414;SDS011;20303;48.302;11.914;2023-04-25T20:48:41;2.35;;;1.40;;
29414;SDS011;20303;48.302;11.914;2023-04-25T20:58:43;2.88;;;1.50;;
29414;SDS011;20303;48.302;11.914;2023-04-25T21:08:44;1.95;;;1.45;;
29414;SDS011;20303;48.302;11.914;2023-04-25T21:18:45;4.32;;;1.42;;
29414;SDS011;20303;48.302;11.914;2023-04-25T21:28:46;4.65;;;1.50;;
29414;SDS011;20303;48.302;11.914;2023-04-25T21:38:48;4.25;;;1.50;;
29414;SDS011;20303;48.302;11.914;2023-04-25T21:48:49;4.95;;;1.50;;
29414;SDS011;20303;48.302;11.914;2023-04-25T21:58:50;6.55;;;1.50;;
29414;SDS011;20303;48.302;11.914;2023-04-25T22:08:51;2.28;;;1.40;;
29414;SDS011;20303;48.302;11.914;2023-04-25T22:18:52;4.68;;;1.33;;
29414;SDS011;20303;48.302;11.914;2023-04-25T22:28:53;4.63;;;1.50;;
29414;SDS011;20303;48.302;11.914;2023-04-25T22:38:55;3.78;;;1.30;;
29414;SDS011;20303;48.302;11.914;2023-04-25T22:48:56;3.03;;;1.30;;
29414;SDS011;20303;48.302;11.914;2023-04-25T22:58:57;2.60;;;1.40;;
29414;SDS011;20303;48.302;11.914;2023-04-25T23:08:58;2.38;;;1.30;;
29414;SDS011;20303;48.302;11.914;2023-04-25T23:18:59;2.25;;;1.40;;
29414;SDS011;20303;48.302;11.914;2023-04-25T23:29:00;2.42;;;1.40;;
29414;SDS011;20303;48.302;11.914;2023-04-25T23:39:01;2.08;;;1.30;;
29414;SDS011;20303;48.302;11.914;2023-04-25T23:49:03;3.63;;;1.30;;
29414;SDS011;20303;48.302;11.914;2023-04-25T23:59:04;1.63;;;1.20;;
